Latest Coastal Weather Observations for Wilsons Promontory

IDV60701

Issued at 4:12 pm EST Friday 17 September 2021 (issued every 10 minutes, with the page automatically refreshed every 10 minutes)

About coastal observations | Map of coastal stations | Coastal observations for VIC | Marine services | Other Formats
Station Details ID: 085096 Name: WILSONS PROMONTORY LIGHTHOUSE Lat: -39.13 Lon: 146.42 Height: 95.0 m
Data from the previous 72 hours. | See also: Recent months at Wilsons Promontory
Date/Time
EST
Wind Sea
Height
m
Swell Vis
km
Cloud Weather Temp
°C
Press
MSL
hPa
Rain since
9am
mm
Dir  Spd
kts
Gust
kts
Height
m
Period
s
Dir
17/04:00pm NNE 14 16 - - - - - - - 12.3 1010.0 0.0
17/03:30pm NNE 12 16 - - - - - - - 12.7 - 0.0
17/03:00pm NE 14 17 - - - - - - - 12.8 1011.3 0.0
17/02:30pm NNE 13 16 - - - - - - - 13.6 - 0.0
17/02:00pm NNE 13 16 - - - - - - - 12.8 - 0.0
17/01:30pm NNE 15 19 - - - - - - - 13.1 - 0.0
17/01:00pm NNE 13 16 - - - - - - - 14.0 - 0.0
17/12:30pm NNE 13 16 - - - - - - - 13.7 - 0.0
17/12:00pm NE 12 15 - - - - - - - 13.3 1013.5 0.0
17/11:30am NE 12 15 - - - - - - - 12.9 - 0.0
17/11:00am NNE 13 16 - - - - - - - 12.9 - 0.0
17/10:30am NNE 15 19 - - - - - - - 13.4 - 0.0
17/10:00am NNE 13 17 - - - - - - - 13.5 - 0.0
17/09:30am NNE 15 21 - - - - - - - 12.7 - 0.0
17/09:00am NNE 13 19 - - - - - - - 12.9 1015.6 0.0
17/08:30am NNE 14 19 - - - - - - - 12.4 - 0.0
17/08:00am NNE 15 21 - - - - - - - 12.1 - 0.0
17/07:30am NNE 13 20 - - - - - - - 11.4 - 0.0
17/07:00am NNE 12 18 - - - - - - - 11.1 - 0.0
17/06:30am NNE 12 17 - - - - - - - 10.6 - 0.0
17/06:00am NNE 11 15 - - - - - - - 10.5 1017.4 0.0
17/05:30am NNE 11 15 - - - - - - - 10.4 - 0.0
17/05:00am NNE 13 17 - - - - - - - 10.4 - 0.0
17/04:30am NNE 14 18 - - - - - - - 10.5 - 0.0
17/04:00am NNE 13 18 - - - - - - - 10.6 - 0.0
17/03:30am NNE 14 19 - - - - - - - 10.6 - 0.0
17/03:00am NNE 15 21 - - - - - - - 10.8 1018.2 0.0
17/02:30am N 14 21 - - - - - - - 10.7 - 0.0
17/02:00am NNE 14 20 - - - - - - - 10.7 - 0.0
17/01:30am NNE 14 20 - - - - - - - 10.9 - 0.0
17/01:00am NNE 13 21 - - - - - - - 11.0 - 0.0
17/12:30am NNE 14 19 - - - - - - - 11.0 - 0.0
17/12:00am NNE 15 23 - - - - - - - 10.9 1020.2 0.0
 
Date/Time
EST
Wind Sea
Height
m
Swell Vis
km
Cloud Weather Temp
°C
Press
MSL
hPa
Rain since
9am
mm
Dir  Spd
kts
Gust
kts
Height
m
Period
s
Dir
16/11:30pm NNE 16 21 - - - - - - - 10.9 - 0.0
16/11:00pm NNE 16 23 - - - - - - - 11.1 - 0.0
16/10:30pm NNE 18 23 - - - - - - - 11.1 - 0.0
16/10:00pm NNE 17 23 - - - - - - - 11.2 - 0.0
16/09:30pm NNE 16 21 - - - - - - - 11.4 - 0.0
16/09:00pm NNE 16 21 - - - - - - - 11.4 1021.9 0.0
16/08:30pm NNE 16 21 - - - - - - - 11.3 - 0.0
16/08:00pm NNE 18 22 - - - - - - - 11.2 - 0.0
16/07:30pm NE 17 21 - - - - - - - 11.1 - 0.0
16/07:00pm NE 17 21 - - - - - - - 11.0 - 0.0
16/06:30pm NE 16 20 - - - - - - - 11.0 - 0.0
16/06:00pm NE 17 21 - - - - - - - 10.8 1021.0 0.0
16/05:30pm NE 14 19 - - - - - - - 10.9 - 0.0
16/05:00pm NE 13 17 - - - - - - - 11.0 - 0.0
16/04:30pm NE 14 17 - - - - - - - 11.2 - 0.0
16/04:00pm NE 13 17 - - - - - - - 11.6 - 0.0
16/03:30pm NE 13 16 - - - - - - - 12.0 - 0.0
16/03:00pm NE 12 16 - - - - - - - 12.4 1021.9 0.0
16/02:30pm NE 13 17 - - - - - - - 11.9 - 0.0
16/02:00pm NE 13 16 - - - - - - - 12.2 - 0.0
16/01:30pm NE 13 17 - - - - - - - 11.6 - 0.0
16/01:00pm NE 14 19 - - - - - - - 12.1 - 0.0
16/12:30pm ENE 13 18 - - - - - - - 12.4 - 0.0
16/12:00pm ENE 16 19 - - - - - - - 11.8 1023.4 0.0
16/11:30am ENE 16 19 - - - - - - - 11.8 - 0.0
16/11:00am ENE 13 18 - - - - - - - 12.2 - 0.0
16/10:30am NE 12 16 - - - - - - - 12.4 - 0.0
16/10:00am NE 11 15 - - - - - - - 11.6 - 0.0
16/09:30am NE 11 15 - - - - - - - 11.8 - 0.0
16/09:00am NE 10 13 - - - - - - - 12.3 1024.9 0.0
16/08:30am NNE 9 13 - - - - - - - 11.1 - 0.0
16/08:00am NNE 8 12 - - - - - - - 10.6 - 0.0
16/07:30am NNE 9 16 - - - - - - - 10.8 - 0.0
16/07:00am E 11 15 - - - - - - - 10.9 - 0.0
16/06:30am ENE 4 6 - - - - - - - 10.6 - 0.0
16/06:00am N 6 9 - - - - - - - 10.5 1025.0 0.0
16/05:30am NE 8 14 - - - - - - - 10.6 - 0.0
16/05:00am ENE 8 11 - - - - - - - 10.6 - 0.0
16/04:30am ESE 2 6 - - - - - - - 10.5 - 0.0
16/04:00am S 1 3 - - - - - - - 10.4 - 0.0
16/03:30am N 3 6 - - - - - - - 10.3 - 0.0
16/03:00am N 4 6 - - - - - - - 10.1 1024.8 0.0
16/02:30am ESE 3 6 - - - - - - - 10.0 - 0.0
16/02:00am N 5 7 - - - - - - - 10.0 - 0.0
16/01:30am NNE 6 9 - - - - - - - 10.0 - 0.0
16/01:00am N 5 8 - - - - - - - 10.0 - 0.0
16/12:30am NNE 7 11 - - - - - - - 10.1 - 0.0
16/12:00am NE 7 9 - - - - - - - 10.2 1025.7 0.0
 
Date/Time
EST
Wind Sea
Height
m
Swell Vis
km
Cloud Weather Temp
°C
Press
MSL
hPa
Rain since
9am
mm
Dir  Spd
kts
Gust
kts
Height
m
Period
s
Dir
15/11:30pm ENE 7 11 - - - - - - - 10.1 - 0.0
15/11:00pm ENE 8 11 - - - - - - - 10.2 - 0.0
15/10:30pm ENE 9 11 - - - - - - - 10.4 - 0.0
15/10:00pm E 10 11 - - - - - - - 10.6 - 0.0
15/09:30pm E 8 10 - - - - - - - 10.7 - 0.0
15/09:00pm E 6 8 - - - - - - - 10.6 1026.0 0.0
15/08:30pm E 5 7 - - - - - - - 10.7 - 0.0
15/08:00pm E 6 8 - - - - - - - 10.8 - 0.0
15/07:30pm E 7 9 - - - - - - - 10.7 - 0.0
15/07:00pm E 6 8 - - - - - - - 10.8 - 0.0
15/06:30pm ESE 7 9 - - - - - - - 10.8 - 0.0
15/06:00pm ESE 6 7 - - - - - - - 10.8 1025.6 0.0
15/05:30pm E 4 6 - - - - - - - 10.8 - 0.0
15/05:00pm E 5 6 - - - - - - - 11.0 - 0.0
15/04:30pm E 6 7 - - - - - - - 11.2 - 0.0
15/04:00pm ESE 4 5 - - - - - - - 11.3 - 0.0
15/03:30pm E 4 5 - - - - - - - 11.3 - 0.0
15/03:00pm ENE 4 5 - - - - - - - 11.3 1026.0 0.0
15/02:30pm ENE 4 4 - - - - - - - 11.3 - 0.0
15/02:00pm NE 3 5 - - - - - - - 11.4 - 0.0
15/01:30pm NE 4 5 - - - - - - - 11.5 - 0.0
15/01:00pm NNE 3 5 - - - - - - - 11.3 - 0.0
15/12:30pm NNE 6 8 - - - - - - - 11.6 - 0.0
15/12:00pm NE 9 13 - - - - - - - 11.5 1027.2 0.0
15/11:30am NNE 5 7 - - - - - - - 12.4 - 0.0
15/11:00am NE 4 7 - - - - - - - 12.1 - 0.0
15/10:30am NNE 2 4 - - - - - - - 11.4 - 0.0
15/10:00am NNW 3 5 - - - - - - - 11.1 - 0.0
15/09:30am NNW 2 5 - - - - - - - 10.3 - 0.0
15/09:00am NE 2 5 - - - - - - - 10.3 1028.0 0.0
15/08:30am WNW 3 5 - - - - - - - 10.4 - 0.0
15/08:00am WNW 3 4 - - - - - - - 10.4 - 0.0
15/07:30am W 3 4 - - - - - - - 10.2 - 0.0
15/07:00am WSW 3 5 - - - - - - - 10.1 - 0.0
15/06:30am CALM 0 4 - - - - - - - 10.1 - 0.0
15/06:00am WNW 5 6 - - - - - - - 9.9 1026.5 0.0
15/05:30am WNW 2 5 - - - - - - - 10.0 - 0.0
15/05:00am N 7 8 - - - - - - - 10.1 - 0.0
15/04:30am N 6 8 - - - - - - - 9.9 - 0.0
15/04:00am N 8 9 - - - - - - - 9.9 - 0.0
15/03:30am N 8 9 - - - - - - - 9.9 - 0.0
15/03:00am N 8 9 - - - - - - - 9.9 1026.0 0.0
15/02:30am N 6 8 - - - - - - - 9.8 - 0.0
15/02:00am NNE 6 8 - - - - - - - 9.8 - 0.0
15/01:30am N 7 9 - - - - - - - 9.8 - 0.0
15/01:00am NNE 8 9 - - - - - - - 9.7 - 0.0
15/12:30am NNE 7 9 - - - - - - - 9.7 - 0.0
15/12:00am NNE 8 9 - - - - - - - 9.6 1027.0 0.0
 
Date/Time
EST
Wind Sea
Height
m
Swell Vis
km
Cloud Weather Temp
°C
Press
MSL
hPa
Rain since
9am
mm
Dir  Spd
kts
Gust
kts
Height
m
Period
s
Dir
14/11:30pm NNE 8 9 - - - - - - - 9.4 - 0.0
14/11:00pm NNE 7 9 - - - - - - - 9.2 - 0.0
14/10:30pm N 7 9 - - - - - - - 9.3 - 0.0
14/10:00pm NNE 8 9 - - - - - - - 9.4 - 0.0
14/09:30pm NNE 7 9 - - - - - - - 9.5 - 0.0
14/09:00pm NNE 8 9 - - - - - - - 9.5 1027.6 0.0
14/08:30pm NNE 8 10 - - - - - - - 9.6 - 0.0
14/08:00pm NNE 8 10 - - - - - - - 9.7 - 0.0
14/07:30pm NNE 8 11 - - - - - - - 9.8 - 0.0
14/07:00pm ENE 8 10 - - - - - - - 10.1 - 0.0
14/06:30pm ENE 7 10 - - - - - - - 10.1 - 0.0
14/06:00pm ENE 5 7 - - - - - - - 10.0 1027.1 0.0
14/05:30pm NE 6 8 - - - - - - - 10.4 - 0.0
14/05:00pm NE 6 8 - - - - - - - 10.9 - 0.0
14/04:30pm E 7 9 - - - - - - - 10.6 - 0.0

Other formats

Comma delimited format used in spreadsheet applications
http://www.bom.gov.au/fwo/IDV60701/IDV60701.94893.axf

JavaScript Object Notation format (JSON) in row-major order
http://www.bom.gov.au/fwo/IDV60701/IDV60701.94893.json

Data quality

Most of these data are generated automatically and are frequently updated. Quality checks on data are not normally performed. It is possible for incorrect values to appear. Refer to information at About Latest Weather Observations and please check the disclaimer before using these data.